Time;durP1;ratioP1;P1;durP2;ratioP2;P2;SDS_P1;SDS_P2;PMS_P1;PMS_P2;Temp;Humidity;BMP_temperature;BMP_pressure;BME280_temperature;BME280_humidity;BME280_pressure;Samples;Min_cycle;Max_cycle;Signal;HPM_P1;HPM_P2
2023/07/06 00:02:16;;;;;;;;;;;;;;;18.64;54.94;101485.38;5135277;27;19920;-62
2023/07/06 00:04:46;;;;;;;;;;;;;;;18.62;54.89;101488.38;5149188;27;19924;-62
2023/07/06 00:07:20;;;;;;;;;;;;;;;18.61;54.75;101484.00;5145418;27;19949;-62
2023/07/06 00:09:48;;;;;;;;;;;;;;;18.60;54.87;101481.53;5145054;27;20314;-62
2023/07/06 00:12:16;;;;;;;;;;;;;;;18.58;54.78;101484.50;5147555;27;19919;-62
2023/07/06 00:14:44;;;;;;;;;;;;;;;18.58;54.69;101491.84;5149911;27;19927;-62
2023/07/06 00:17:14;;;;;;;;;;;;;;;18.56;54.77;101486.66;5145071;27;19919;-62
2023/07/06 00:19:42;;;;;;;;;;;;;;;18.55;54.66;101487.75;5142707;27;19926;-62
2023/07/06 00:22:11;;;;;;;;;;;;;;;18.53;54.64;101485.28;5146708;27;19970;-62
2023/07/06 00:24:41;;;;;;;;;;;;;;;18.52;54.60;101491.81;5134267;27;19978;-62
2023/07/06 00:27:09;;;;;;;;;;;;;;;18.51;54.49;101487.44;5144012;27;19920;-61
2023/07/06 00:29:46;;;;;;;;;;;;;;;18.50;54.72;101484.97;5144539;27;20272;-61
2023/07/06 00:32:26;;;;;;;;;;;;;;;18.49;54.48;101483.34;5155204;27;20383;-61
2023/07/06 00:34:54;;;;;;;;;;;;;;;18.48;54.66;101487.13;5146549;27;19923;-62
2023/07/06 00:37:22;;;;;;;;;;;;;;;18.47;54.68;101489.03;5146735;27;20363;-60
2023/07/06 00:39:50;;;;;;;;;;;;;;;18.45;54.56;101484.94;5143342;27;19939;-63
2023/07/06 00:42:19;;;;;;;;;;;;;;;18.44;54.81;101489.53;5138234;27;19945;-63
2023/07/06 00:44:54;;;;;;;;;;;;;;;18.43;54.53;101485.19;5148273;27;19919;-62
2023/07/06 00:47:29;;;;;;;;;;;;;;;18.43;54.73;101484.38;5132545;27;19920;-62
2023/07/06 00:49:58;;;;;;;;;;;;;;;18.40;54.51;101485.69;5150041;27;19919;-62
2023/07/06 00:52:26;;;;;;;;;;;;;;;18.41;54.61;101486.53;5143038;27;19919;-62
2023/07/06 00:54:54;;;;;;;;;;;;;;;18.38;54.77;101485.13;5144121;27;19924;-62
2023/07/06 00:57:22;;;;;;;;;;;;;;;18.38;54.59;101489.75;5140857;27;19919;-63
2023/07/06 00:59:50;;;;;;;;;;;;;;;18.37;54.62;101493.56;5135610;27;19927;-62
2023/07/06 01:02:19;;;;;;;;;;;;;;;18.37;54.32;101485.41;5138709;27;20291;-62
2023/07/06 01:04:48;;;;;;;;;;;;;;;18.35;54.34;101485.66;5141450;27;19919;-61
2023/07/06 01:07:19;;;;;;;;;;;;;;;18.34;54.36;101486.72;5142627;27;19941;-62
2023/07/06 01:09:47;;;;;;;;;;;;;;;18.34;54.16;101486.72;5139995;27;19919;-62
2023/07/06 01:12:16;;;;;;;;;;;;;;;18.33;54.01;101481.56;5139910;27;19934;-61
2023/07/06 01:14:45;;;;;;;;;;;;;;;18.31;54.31;101483.72;5138929;27;19945;-62
2023/07/06 01:17:15;;;;;;;;;;;;;;;18.31;54.60;101480.97;5141966;27;19927;-62
2023/07/06 01:19:55;;;;;;;;;;;;;;;18.30;54.36;101493.78;5142570;27;19940;-62
2023/07/06 01:22:32;;;;;;;;;;;;;;;18.29;54.33;101481.25;5141702;27;19965;-62
2023/07/06 01:25:12;;;;;;;;;;;;;;;18.28;54.29;101487.75;5143803;27;19939;-62
2023/07/06 01:27:50;;;;;;;;;;;;;;;18.27;53.94;101477.97;5138532;27;19920;-61
2023/07/06 01:30:27;;;;;;;;;;;;;;;18.25;54.08;101485.56;5148500;27;19924;-61
2023/07/06 01:32:58;;;;;;;;;;;;;;;18.24;54.08;101481.19;5144980;27;19924;-62
2023/07/06 01:35:28;;;;;;;;;;;;;;;18.24;54.25;101485.81;5141841;27;19941;-62
2023/07/06 01:37:56;;;;;;;;;;;;;;;18.22;54.00;101483.34;5151446;27;19963;-62
2023/07/06 01:40:24;;;;;;;;;;;;;;;18.23;53.92;101486.88;5148433;27;19927;-62
2023/07/06 01:42:51;;;;;;;;;;;;;;;18.19;54.17;101484.69;5139409;27;19927;-62
2023/07/06 01:45:21;;;;;;;;;;;;;;;18.19;53.86;101484.69;5143204;27;19928;-62
2023/07/06 01:47:51;;;;;;;;;;;;;;;18.18;54.14;101484.94;5147646;27;19919;-62
2023/07/06 01:50:22;;;;;;;;;;;;;;;18.17;54.06;101489.56;5137931;27;20338;-62
2023/07/06 01:52:58;;;;;;;;;;;;;;;18.15;53.84;101486.28;5130859;27;19919;-62
2023/07/06 01:55:28;;;;;;;;;;;;;;;18.13;53.94;101485.72;5138801;27;19935;-62
2023/07/06 01:58:04;;;;;;;;;;;;;;;18.13;54.22;101482.16;5137888;27;19957;-62
2023/07/06 02:00:32;;;;;;;;;;;;;;;18.11;54.19;101481.59;5130822;27;19923;-62
2023/07/06 02:03:00;;;;;;;;;;;;;;;18.10;53.92;101485.41;5141148;27;20340;-62
2023/07/06 02:05:29;;;;;;;;;;;;;;;18.09;54.09;101483.75;5140755;27;19920;-62
2023/07/06 02:07:57;;;;;;;;;;;;;;;18.07;53.80;101483.19;5144171;27;19934;-62
2023/07/06 02:10:25;;;;;;;;;;;;;;;18.05;53.95;101480.72;5141251;27;19949;-61
2023/07/06 02:12:53;;;;;;;;;;;;;;;18.05;53.81;101486.16;5139509;27;19920;-62
2023/07/06 02:15:20;;;;;;;;;;;;;;;18.04;53.87;101489.16;5144930;27;19980;-62
2023/07/06 02:17:49;;;;;;;;;;;;;;;18.03;53.98;101485.59;5147551;27;19919;-62
2023/07/06 02:20:19;;;;;;;;;;;;;;;18.02;53.68;101483.97;5148119;27;19919;-61
2023/07/06 02:22:49;;;;;;;;;;;;;;;18.01;53.69;101479.59;5150292;27;19927;-62
2023/07/06 02:25:16;;;;;;;;;;;;;;;17.99;53.91;101487.19;5141567;27;19999;-62
2023/07/06 02:27:44;;;;;;;;;;;;;;;17.99;53.99;101478.22;5148244;27;19919;-62
2023/07/06 02:30:11;;;;;;;;;;;;;;;17.98;53.76;101479.28;5140794;27;19920;-61
2023/07/06 02:32:40;;;;;;;;;;;;;;;17.97;53.94;101485.81;5147546;27;19926;-62
2023/07/06 02:35:09;;;;;;;;;;;;;;;17.96;53.72;101482.25;5150122;27;19919;-62
2023/07/06 02:37:38;;;;;;;;;;;;;;;17.95;53.73;101477.91;5147026;27;19964;-63
2023/07/06 02:40:09;;;;;;;;;;;;;;;17.94;53.73;101478.97;5147876;27;19923;-61
2023/07/06 02:42:36;;;;;;;;;;;;;;;17.94;53.74;101484.41;5146767;27;19919;-62
2023/07/06 02:45:05;;;;;;;;;;;;;;;17.93;53.92;101485.50;5148201;27;20456;-62
2023/07/06 02:47:32;;;;;;;;;;;;;;;17.91;53.72;101484.09;5143402;27;19950;-62
2023/07/06 02:50:00;;;;;;;;;;;;;;;17.90;53.98;101486.00;5145597;27;20272;-62
2023/07/06 02:52:28;;;;;;;;;;;;;;;17.89;53.82;101489.78;5143452;27;19926;-62
2023/07/06 02:54:55;;;;;;;;;;;;;;;17.89;53.93;101495.25;5151002;27;19919;-62
2023/07/06 02:57:24;;;;;;;;;;;;;;;17.88;53.88;101485.44;5135926;27;19930;-62
2023/07/06 02:59:56;;;;;;;;;;;;;;;17.86;53.73;101485.69;5145816;27;19919;-62
2023/07/06 03:02:23;;;;;;;;;;;;;;;17.85;53.76;101491.38;5145065;27;19919;-62
2023/07/06 03:04:53;;;;;;;;;;;;;;;17.84;53.88;101482.41;5144392;27;19925;-62
2023/07/06 03:07:23;;;;;;;;;;;;;;;17.84;53.65;101487.84;5140170;27;19923;-62
2023/07/06 03:09:50;;;;;;;;;;;;;;;17.84;53.41;101484.31;5146639;27;19927;-62
2023/07/06 03:12:18;;;;;;;;;;;;;;;17.82;53.58;101487.28;5147747;27;19927;-62
2023/07/06 03:14:47;;;;;;;;;;;;;;;17.81;53.61;101488.34;5147350;27;19979;-62
2023/07/06 03:17:15;;;;;;;;;;;;;;;17.80;53.42;101485.88;5137819;27;19920;-62
2023/07/06 03:19:42;;;;;;;;;;;;;;;17.81;53.63;101498.41;5140779;27;19919;-61
2023/07/06 03:22:10;;;;;;;;;;;;;;;17.79;53.46;101495.13;5140090;27;19923;-62
2023/07/06 03:24:38;;;;;;;;;;;;;;;17.78;53.37;101501.63;5141768;27;19949;-62
2023/07/06 03:27:06;;;;;;;;;;;;;;;17.78;53.39;101498.91;5146271;27;19919;-62
2023/07/06 03:29:35;;;;;;;;;;;;;;;17.76;53.73;101504.59;5141810;27;20000;-61
2023/07/06 03:32:06;;;;;;;;;;;;;;;17.74;53.67;101505.94;5140017;27;19972;-61
2023/07/06 03:34:33;;;;;;;;;;;;;;;17.73;53.45;101510.56;5147013;27;19941;-62
2023/07/06 03:37:04;;;;;;;;;;;;;;;17.72;53.26;101511.63;5147295;27;19919;-62
2023/07/06 03:39:33;;;;;;;;;;;;;;;17.72;53.28;101511.63;5152722;27;19919;-62
2023/07/06 03:42:01;;;;;;;;;;;;;;;17.71;53.23;101512.69;5146574;27;20188;-62
2023/07/06 03:44:29;;;;;;;;;;;;;;;17.72;53.19;101519.78;5160129;27;19927;-61
2023/07/06 03:46:58;;;;;;;;;;;;;;;17.69;53.32;101509.41;5144537;27;19952;-61
2023/07/06 03:49:27;;;;;;;;;;;;;;;17.69;53.16;101511.31;5142495;27;19927;-62
2023/07/06 03:51:54;;;;;;;;;;;;;;;17.68;53.46;101517.81;5143489;27;19919;-62
2023/07/06 03:54:22;;;;;;;;;;;;;;;17.65;53.48;101519.13;5146001;27;19930;-62
2023/07/06 03:56:51;;;;;;;;;;;;;;;17.65;53.55;101521.84;5146608;27;19924;-61
2023/07/06 03:59:18;;;;;;;;;;;;;;;17.64;53.24;101530.25;5150391;27;19919;-62
2023/07/06 04:01:46;;;;;;;;;;;;;;;17.62;53.58;101526.94;5144557;27;19919;-61
2023/07/06 04:04:16;;;;;;;;;;;;;;;17.61;53.69;101528.84;5140292;27;19968;-62
2023/07/06 04:06:45;;;;;;;;;;;;;;;17.60;53.69;101542.69;5135898;27;19928;-62
2023/07/06 04:09:13;;;;;;;;;;;;;;;17.58;53.58;101535.59;5137540;27;19919;-61
2023/07/06 04:11:41;;;;;;;;;;;;;;;17.58;53.58;101538.31;5141973;27;19972;-61
2023/07/06 04:14:09;;;;;;;;;;;;;;;17.57;53.58;101550.28;5142976;27;19970;-62
2023/07/06 04:16:38;;;;;;;;;;;;;;;17.56;53.25;101548.63;5138744;27;19919;-62
2023/07/06 04:19:06;;;;;;;;;;;;;;;17.56;53.57;101550.53;5145728;27;19941;-62
2023/07/06 04:21:34;;;;;;;;;;;;;;;17.55;53.57;101546.16;5141376;27;19920;-62
2023/07/06 04:24:04;;;;;;;;;;;;;;;17.53;53.30;101537.44;5139195;27;20373;-62
2023/07/06 04:26:31;;;;;;;;;;;;;;;17.53;53.44;101551.03;5147684;27;19955;-62
2023/07/06 04:28:59;;;;;;;;;;;;;;;17.50;53.74;101548.81;5146174;27;19930;-62
2023/07/06 04:31:27;;;;;;;;;;;;;;;17.48;53.69;101543.63;5137336;27;19957;-62
2023/07/06 04:33:55;;;;;;;;;;;;;;;17.50;53.70;101552.34;5133060;27;20001;-62
2023/07/06 04:36:22;;;;;;;;;;;;;;;17.50;53.63;101543.38;5137163;27;19920;-61
2023/07/06 04:38:50;;;;;;;;;;;;;;;17.48;53.73;101549.06;5132908;27;19919;-61
2023/07/06 04:41:19;;;;;;;;;;;;;;;17.48;54.00;101551.78;5138680;27;19919;-62
2023/07/06 04:43:47;;;;;;;;;;;;;;;17.47;53.54;101558.28;5139616;27;20372;-62
2023/07/06 04:46:14;;;;;;;;;;;;;;;17.48;53.71;101554.50;5142966;27;19923;-62
2023/07/06 04:48:44;;;;;;;;;;;;;;;17.48;53.91;101559.94;5152077;27;20004;-62
2023/07/06 04:51:12;;;;;;;;;;;;;;;17.47;53.87;101557.47;5140036;27;19919;-63
2023/07/06 04:53:39;;;;;;;;;;;;;;;17.46;53.95;101562.06;5148165;27;19919;-62
2023/07/06 04:56:07;;;;;;;;;;;;;;;17.45;53.98;101559.59;5143353;27;19975;-62
2023/07/06 04:58:37;;;;;;;;;;;;;;;17.43;54.20;101561.75;5143408;27;19984;-62
2023/07/06 05:01:07;;;;;;;;;;;;;;;17.42;54.11;101563.66;5141372;27;19919;-62
2023/07/06 05:03:35;;;;;;;;;;;;;;;17.41;54.31;101564.72;5144780;27;19920;-61
2023/07/06 05:06:05;;;;;;;;;;;;;;;17.41;54.15;101567.44;5141214;27;19926;-61
2023/07/06 05:08:33;;;;;;;;;;;;;;;17.40;54.18;101565.78;5146569;27;19919;-61
2023/07/06 05:11:03;;;;;;;;;;;;;;;17.40;54.19;101568.50;5135761;27;19927;-62
2023/07/06 05:13:31;;;;;;;;;;;;;;;17.41;54.21;101570.16;5145270;27;19919;-63
2023/07/06 05:16:00;;;;;;;;;;;;;;;17.40;54.24;101573.94;5129026;27;20018;-64
2023/07/06 05:18:28;;;;;;;;;;;;;;;17.39;54.20;101566.88;5137586;27;19920;-63
2023/07/06 05:20:57;;;;;;;;;;;;;;;17.40;54.41;101570.41;5136102;27;19944;-63
2023/07/06 05:23:27;;;;;;;;;;;;;;;17.39;54.49;101564.16;5138736;27;19926;-61
2023/07/06 05:25:55;;;;;;;;;;;;;;;17.38;54.60;101569.84;5136493;27;19930;-62
2023/07/06 05:28:23;;;;;;;;;;;;;;;17.37;54.47;101574.44;4781438;27;10000783;-63
2023/07/06 05:30:51;;;;;;;;;;;;;;;17.35;54.74;101565.72;5139413;27;19920;-62
2023/07/06 05:33:23;;;;;;;;;;;;;;;17.36;54.86;101569.25;5135049;27;19932;-65
2023/07/06 05:35:51;;;;;;;;;;;;;;;17.37;54.78;101573.63;5134261;27;19928;-62
2023/07/06 05:38:20;;;;;;;;;;;;;;;17.35;54.85;101579.31;5130540;27;19927;-62
2023/07/06 05:40:47;;;;;;;;;;;;;;;17.35;55.65;101579.31;5143708;27;20162;-63
2023/07/06 05:43:16;;;;;;;;;;;;;;;17.36;55.63;101585.56;5128431;27;19930;-63
2023/07/06 05:45:43;;;;;;;;;;;;;;;17.35;55.48;101583.91;5141673;27;19919;-63
2023/07/06 05:48:11;;;;;;;;;;;;;;;17.35;55.42;101590.16;5132390;27;19955;-63
2023/07/06 05:50:41;;;;;;;;;;;;;;;17.34;55.24;101579.56;5138089;27;19920;-64
2023/07/06 05:53:08;;;;;;;;;;;;;;;17.33;55.47;101581.47;5142048;27;19919;-63
2023/07/06 05:55:36;;;;;;;;;;;;;;;17.35;55.54;101589.34;5144104;27;19919;-63
2023/07/06 05:58:04;;;;;;;;;;;;;;;17.36;55.48;101582.84;5142570;27;19923;-64
2023/07/06 06:00:35;;;;;;;;;;;;;;;17.35;55.68;101586.63;5139292;28;19923;-63
2023/07/06 06:03:03;;;;;;;;;;;;;;;17.35;55.51;101587.47;5143037;28;19935;-64
2023/07/06 06:05:31;;;;;;;;;;;;;;;17.35;55.64;101586.63;5146670;27;19930;-63
2023/07/06 06:08:01;;;;;;;;;;;;;;;17.35;55.35;101590.16;5144740;27;20356;-63
2023/07/06 06:10:31;;;;;;;;;;;;;;;17.36;56.87;101588.28;5139217;27;20364;-62
2023/07/06 06:12:58;;;;;;;;;;;;;;;17.36;56.90;101597.25;5147961;27;19926;-62
2023/07/06 06:15:27;;;;;;;;;;;;;;;17.37;56.74;101590.75;5137777;28;19919;-63
2023/07/06 06:17:54;;;;;;;;;;;;;;;17.40;56.66;101587.53;5138313;28;19920;-62
2023/07/06 06:20:22;;;;;;;;;;;;;;;17.44;56.64;101594.13;5145748;28;19954;-63
2023/07/06 06:22:51;;;;;;;;;;;;;;;17.48;56.38;101597.16;5133463;28;19944;-63
2023/07/06 06:25:20;;;;;;;;;;;;;;;17.52;56.43;101609.19;5129015;27;20309;-62
2023/07/06 06:27:47;;;;;;;;;;;;;;;17.54;56.77;101604.31;5137229;28;19942;-63
2023/07/06 06:30:16;;;;;;;;;;;;;;;17.58;56.66;101606.28;5134339;28;19920;-63
2023/07/06 06:32:43;;;;;;;;;;;;;;;17.60;56.56;101608.75;5141318;28;19920;-63
2023/07/06 06:35:22;;;;;;;;;;;;;;;17.63;56.26;101607.44;5132798;28;19963;-63
2023/07/06 06:37:49;;;;;;;;;;;;;;;17.66;56.81;101602.34;5135479;28;19919;-62
2023/07/06 06:40:17;;;;;;;;;;;;;;;17.70;56.68;101608.94;5145764;28;19927;-61
2023/07/06 06:42:46;;;;;;;;;;;;;;;17.73;56.77;101623.91;5140973;28;19924;-62
2023/07/06 06:45:14;;;;;;;;;;;;;;;17.77;57.12;101616.91;5137315;28;19919;-63
2023/07/06 06:47:42;;;;;;;;;;;;;;;17.78;56.97;101624.81;5145300;27;19924;-61
2023/07/06 06:50:11;;;;;;;;;;;;;;;17.81;57.00;101629.75;5145606;28;19925;-61
2023/07/06 06:52:39;;;;;;;;;;;;;;;17.84;57.05;101625.69;5138385;27;19962;-62
2023/07/06 06:55:07;;;;;;;;;;;;;;;17.84;56.75;101622.97;5136080;28;19927;-61
2023/07/06 06:57:34;;;;;;;;;;;;;;;17.84;56.83;101626.53;5143245;28;19919;-61
2023/07/06 07:00:06;;;;;;;;;;;;;;;17.83;56.75;101626.78;5143568;27;19940;-61
2023/07/06 07:02:33;;;;;;;;;;;;;;;17.83;56.86;101635.75;5146319;27;20375;-61
2023/07/06 07:05:01;;;;;;;;;;;;;;;17.83;57.08;101640.38;5146324;27;19923;-60
2023/07/06 07:07:29;;;;;;;;;;;;;;;17.86;57.31;101631.72;5147988;27;19923;-60
2023/07/06 07:09:56;;;;;;;;;;;;;;;17.87;57.30;101641.53;5145467;27;19923;-61
2023/07/06 07:12:25;;;;;;;;;;;;;;;18.03;57.10;101637.09;5146806;27;19920;-61
2023/07/06 07:14:53;;;;;;;;;;;;;;;18.00;57.21;101643.06;5147673;27;19986;-61
2023/07/06 07:17:22;;;;;;;;;;;;;;;17.95;57.23;101649.25;5142532;27;19923;-62
2023/07/06 07:19:51;;;;;;;;;;;;;;;17.92;56.97;101657.91;5144778;27;19919;-62
2023/07/06 07:22:19;;;;;;;;;;;;;;;17.99;57.09;101650.38;5148144;27;19933;-61
2023/07/06 07:24:47;;;;;;;;;;;;;;;17.95;57.25;101646.53;5144888;27;20010;-61
2023/07/06 07:27:16;;;;;;;;;;;;;;;17.96;57.76;101656.34;5147052;27;19920;-61
2023/07/06 07:29:43;;;;;;;;;;;;;;;18.20;56.88;101657.75;5144988;27;19923;-61
2023/07/06 07:32:11;;;;;;;;;;;;;;;18.08;56.79;101661.66;5144155;27;19919;-62
2023/07/06 07:34:43;;;;;;;;;;;;;;;18.01;57.21;101669.19;5145827;27;20038;-61
2023/07/06 07:37:14;;;;;;;;;;;;;;;17.97;57.23;101668.84;5145115;27;19994;-65
2023/07/06 07:39:41;;;;;;;;;;;;;;;17.95;57.24;101676.44;5147930;27;20098;-60
2023/07/06 07:42:10;;;;;;;;;;;;;;;17.95;57.63;101679.16;5147218;27;19924;-62
2023/07/06 07:44:37;;;;;;;;;;;;;;;17.93;57.20;101661.44;5142657;27;19948;-62
2023/07/06 07:47:05;;;;;;;;;;;;;;;17.94;57.85;101665.81;5144680;27;19919;-61
2023/07/06 07:49:32;;;;;;;;;;;;;;;17.94;57.52;101663.09;5145479;27;19923;-59
2023/07/06 07:52:01;;;;;;;;;;;;;;;17.93;57.87;101667.72;5147856;27;19919;-61
2023/07/06 07:54:29;;;;;;;;;;;;;;;17.94;57.99;101665.81;5143150;27;19965;-60
2023/07/06 07:56:57;;;;;;;;;;;;;;;17.91;58.30;101667.13;5148273;27;19926;-60
2023/07/06 07:59:24;;;;;;;;;;;;;;;17.91;58.63;101667.13;5143082;27;19919;-59
2023/07/06 08:01:53;;;;;;;;;;;;;;;17.92;59.41;101670.69;5147502;27;20011;-61
2023/07/06 08:04:21;;;;;;;;;;;;;;;17.90;59.57;101668.22;5141605;27;19944;-61
2023/07/06 08:06:50;;;;;;;;;;;;;;;17.91;60.21;101671.75;5142104;27;19939;-61
2023/07/06 08:09:19;;;;;;;;;;;;;;;17.90;60.06;101665.50;5147442;27;19925;-61
2023/07/06 08:11:47;;;;;;;;;;;;;;;17.91;60.37;101669.03;5142536;27;19923;-61
2023/07/06 08:14:32;;;;;;;;;;;;;;;17.90;60.59;101679.09;5144233;27;19923;-61
2023/07/06 08:16:59;;;;;;;;;;;;;;;17.89;60.72;101678.25;5144011;27;19956;-61
2023/07/06 08:19:27;;;;;;;;;;;;;;;17.90;60.77;101681.81;5145360;27;19927;-61
2023/07/06 08:22:14;;;;;;;;;;;;;;;17.92;61.22;101679.66;5147757;27;20087;-61
2023/07/06 08:24:44;;;;;;;;;;;;;;;17.92;60.85;101682.38;5139542;27;19945;-60
2023/07/06 08:27:12;;;;;;;;;;;;;;;17.95;61.43;101689.22;5134147;27;19942;-63
2023/07/06 08:29:44;;;;;;;;;;;;;;;17.94;61.69;101682.97;5144966;27;20006;-63
2023/07/06 08:32:15;;;;;;;;;;;;;;;17.95;61.75;101690.03;5142582;27;19945;-59
2023/07/06 08:34:43;;;;;;;;;;;;;;;17.96;61.44;101694.41;5141847;27;20056;-59
2023/07/06 08:37:11;;;;;;;;;;;;;;;17.92;61.76;101678.84;5145362;27;19931;-59
2023/07/06 08:39:39;;;;;;;;;;;;;;;17.98;61.47;101686.00;5143214;27;19919;-59
2023/07/06 08:42:11;;;;;;;;;;;;;;;18.00;61.67;101689.28;5146414;27;20405;-59
2023/07/06 08:44:38;;;;;;;;;;;;;;;18.01;61.65;101691.75;5140153;27;19920;-59
2023/07/06 08:47:07;;;;;;;;;;;;;;;18.04;61.85;101693.97;5144775;27;19941;-59
2023/07/06 08:49:38;;;;;;;;;;;;;;;18.08;61.81;101688.88;5141272;27;19941;-60
2023/07/06 08:52:07;;;;;;;;;;;;;;;18.12;62.09;101700.88;5137737;27;19927;-59
2023/07/06 08:54:37;;;;;;;;;;;;;;;18.16;61.80;101688.44;5141019;27;20290;-59
2023/07/06 08:57:10;;;;;;;;;;;;;;;18.18;61.73;101686.28;5143261;27;19928;-58
2023/07/06 08:59:38;;;;;;;;;;;;;;;18.21;61.88;101700.19;5142063;27;19927;-59
2023/07/06 09:02:16;;;;;;;;;;;;;;;18.27;61.63;101701.09;5146100;27;19919;-59
2023/07/06 09:04:46;;;;;;;;;;;;;;;18.32;61.42;101703.06;5141187;27;19927;-59
2023/07/06 09:07:15;;;;;;;;;;;;;;;18.35;60.65;101702.56;5140447;27;19935;-59
2023/07/06 09:09:44;;;;;;;;;;;;;;;18.35;60.48;101699.84;5141812;27;19930;-60
2023/07/06 09:12:18;;;;;;;;;;;;;;;18.35;60.40;101700.66;5145352;27;20043;-60
2023/07/06 09:14:49;;;;;;;;;;;;;;;18.37;60.22;101703.13;5142102;27;19965;-60
2023/07/06 09:17:17;;;;;;;;;;;;;;;18.38;60.31;101705.59;5138668;27;19927;-60
2023/07/06 09:19:45;;;;;;;;;;;;;;;18.39;59.95;101703.69;5140171;27;19927;-59
2023/07/06 09:22:13;;;;;;;;;;;;;;;18.38;59.72;101707.50;5143325;27;19941;-59
2023/07/06 09:24:45;;;;;;;;;;;;;;;18.40;59.89;101706.16;5143391;27;19941;-57
2023/07/06 09:27:18;;;;;;;;;;;;;;;18.44;60.03;101709.19;5141315;27;19920;-57
2023/07/06 09:29:56;;;;;;;;;;;;;;;18.48;59.92;101710.34;5143805;27;20272;-57
2023/07/06 09:32:23;;;;;;;;;;;;;;;18.51;59.57;101713.38;5144351;27;19919;-57
2023/07/06 09:34:52;;;;;;;;;;;;;;;18.54;59.77;101722.94;5142610;27;19927;-57
2023/07/06 09:37:20;;;;;;;;;;;;;;;18.56;59.54;101715.34;5144651;27;19979;-58
2023/07/06 09:39:58;;;;;;;;;;;;;;;18.59;59.38;101709.38;5140013;27;20263;-58
2023/07/06 09:42:31;;;;;;;;;;;;;;;18.61;59.64;101715.44;5139300;27;19980;-58
2023/07/06 09:45:00;;;;;;;;;;;;;;;18.62;59.31;101708.91;5132598;27;19919;-58
2023/07/06 09:47:28;;;;;;;;;;;;;;;18.66;59.57;101709.22;5142983;27;19920;-58
2023/07/06 09:49:57;;;;;;;;;;;;;;;18.68;59.27;101710.63;5141212;27;19923;-57
2023/07/06 09:52:25;;;;;;;;;;;;;;;18.72;59.24;101708.22;5145508;27;20298;-58
2023/07/06 09:54:56;;;;;;;;;;;;;;;18.74;59.36;101712.31;5143277;27;19938;-58
2023/07/06 09:57:25;;;;;;;;;;;;;;;18.76;59.10;101715.63;5142191;27;20060;-57
2023/07/06 09:59:54;;;;;;;;;;;;;;;18.80;59.11;101711.31;5139993;27;19949;-58
2023/07/06 10:02:25;;;;;;;;;;;;;;;18.83;59.05;101699.91;5140542;27;19919;-58
2023/07/06 10:04:56;;;;;;;;;;;;;;;18.89;58.90;101702.69;5144625;27;19926;-57
2023/07/06 10:07:27;;;;;;;;;;;;;;;18.91;58.73;101706.78;5143054;27;19941;-58
2023/07/06 10:09:56;;;;;;;;;;;;;;;18.94;58.78;101705.44;5145381;27;19968;-58
2023/07/06 10:12:27;;;;;;;;;;;;;;;18.96;58.53;101703.28;5138025;27;20391;-58
2023/07/06 10:14:59;;;;;;;;;;;;;;;18.99;58.59;101705.50;5137849;27;19931;-58
2023/07/06 10:17:35;;;;;;;;;;;;;;;19.00;58.33;101710.69;5143723;27;19963;-58
2023/07/06 10:20:08;;;;;;;;;;;;;;;19.03;58.43;101695.75;5142391;27;19940;-58
2023/07/06 10:22:40;;;;;;;;;;;;;;;19.04;58.22;101698.19;5138070;27;20364;-58
2023/07/06 10:25:19;;;;;;;;;;;;;;;19.07;58.28;101694.09;5134097;27;19926;-58
2023/07/06 10:27:48;;;;;;;;;;;;;;;19.09;58.24;101687.31;5141777;27;19979;-58
2023/07/06 10:30:20;;;;;;;;;;;;;;;19.11;58.14;101697.97;5135869;27;19919;-58
2023/07/06 10:32:50;;;;;;;;;;;;;;;19.13;58.05;101702.06;5139962;27;19961;-57
2023/07/06 10:35:21;;;;;;;;;;;;;;;19.15;58.07;101693.66;5144600;27;20014;-57
2023/07/06 10:37:49;;;;;;;;;;;;;;;19.14;58.00;101698.28;5144209;27;19926;-58
2023/07/06 10:40:19;;;;;;;;;;;;;;;19.17;57.81;101692.31;5147609;27;19919;-58
2023/07/06 10:42:52;;;;;;;;;;;;;;;19.22;57.52;101698.88;5143249;27;20360;-58
2023/07/06 10:45:39;;;;;;;;;;;;;;;19.26;57.56;101700.00;5139230;27;19924;-58
2023/07/06 10:48:14;;;;;;;;;;;;;;;19.28;57.68;101703.31;5134592;27;19942;-57
2023/07/06 10:50:47;;;;;;;;;;;;;;;19.31;57.63;101689.97;5132512;27;19919;-58
2023/07/06 10:53:21;;;;;;;;;;;;;;;19.34;57.75;101685.91;5141411;27;20005;-58
2023/07/06 10:55:58;;;;;;;;;;;;;;;19.37;57.60;101696.28;5142729;27;19920;-58
2023/07/06 10:58:27;;;;;;;;;;;;;;;19.43;57.80;101693.34;5140384;27;19949;-57
2023/07/06 11:00:58;;;;;;;;;;;;;;;19.47;57.82;101702.66;5137499;27;19966;-57
2023/07/06 11:03:28;;;;;;;;;;;;;;;19.52;57.63;101704.63;5136582;27;19943;-58
2023/07/06 11:05:58;;;;;;;;;;;;;;;19.57;57.64;101704.66;5135095;27;19980;-57
2023/07/06 11:08:45;;;;;;;;;;;;;;;19.62;57.00;101710.16;5142721;27;19926;-58
2023/07/06 11:11:18;;;;;;;;;;;;;;;19.66;57.07;101703.09;5139946;27;19965;-58
2023/07/06 11:13:50;;;;;;;;;;;;;;;19.70;56.47;101708.84;5132241;27;19919;-58
2023/07/06 11:16:23;;;;;;;;;;;;;;;19.72;56.29;101704.78;5134987;27;19926;-58
2023/07/06 11:18:53;;;;;;;;;;;;;;;19.75;56.32;101701.53;5140317;27;19928;-58
2023/07/06 11:21:27;;;;;;;;;;;;;;;19.81;55.19;101705.94;5134992;27;19930;-58
2023/07/06 11:23:58;;;;;;;;;;;;;;;19.86;55.81;101701.59;5130855;27;19919;-58
2023/07/06 11:26:34;;;;;;;;;;;;;;;19.92;55.78;101703.28;5140739;27;19927;-58
2023/07/06 11:29:02;;;;;;;;;;;;;;;19.96;55.16;101698.94;5135938;27;19920;-58
2023/07/06 11:31:47;;;;;;;;;;;;;;;20.01;54.10;101701.69;5137372;27;19919;-58
2023/07/06 11:34:22;;;;;;;;;;;;;;;20.05;54.69;101697.34;5145150;27;19920;-57
2023/07/06 11:36:55;;;;;;;;;;;;;;;20.05;54.02;101711.00;5139038;27;19941;-57
2023/07/06 11:39:26;;;;;;;;;;;;;;;20.07;54.00;101703.38;5143918;27;19926;-57
2023/07/06 11:41:57;;;;;;;;;;;;;;;20.08;54.10;101711.28;5143161;27;19938;-57
2023/07/06 11:44:35;;;;;;;;;;;;;;;20.09;53.15;101707.47;5147807;27;19919;-58
2023/07/06 11:47:23;;;;;;;;;;;;;;;20.11;53.88;101707.22;5140158;27;19923;-58
2023/07/06 11:49:54;;;;;;;;;;;;;;;20.13;53.69;101705.88;5135538;27;19931;-57
2023/07/06 11:52:24;;;;;;;;;;;;;;;20.15;53.24;101709.16;5143886;27;20364;-57
2023/07/06 11:55:04;;;;;;;;;;;;;;;20.19;53.92;101714.09;5130270;27;19937;-58
2023/07/06 11:57:43;;;;;;;;;;;;;;;20.20;52.79;101708.34;5128966;27;19948;-58
2023/07/06 12:00:33;;;;;;;;;;;;;;;20.22;52.13;101702.63;5146557;27;19920;-58
2023/07/06 12:03:01;;;;;;;;;;;;;;;20.24;52.67;101708.66;5139480;27;19919;-58
2023/07/06 12:05:34;;;;;;;;;;;;;;;20.26;53.19;101699.09;5137607;27;19930;-58
2023/07/06 12:08:03;;;;;;;;;;;;;;;20.31;52.39;101703.78;5145099;27;19971;-58
2023/07/06 12:10:31;;;;;;;;;;;;;;;20.34;52.63;101708.69;5140327;27;19919;-58
2023/07/06 12:12:59;;;;;;;;;;;;;;;20.34;51.84;101706.78;5135102;27;19945;-58
2023/07/06 12:15:29;;;;;;;;;;;;;;;20.35;51.32;101710.34;5135824;27;20015;-58
2023/07/06 12:17:56;;;;;;;;;;;;;;;20.35;51.34;101711.16;5151579;27;19923;-57
2023/07/06 12:20:25;;;;;;;;;;;;;;;20.37;51.90;101708.16;5143109;27;19919;-57
2023/07/06 12:22:57;;;;;;;;;;;;;;;20.31;52.17;101695.56;5131556;27;19948;-56
2023/07/06 12:25:25;;;;;;;;;;;;;;;20.43;52.23;101715.31;5142532;27;19919;-57
2023/07/06 12:27:56;;;;;;;;;;;;;;;20.44;50.97;101717.78;5142094;27;19964;-58
2023/07/06 12:30:28;;;;;;;;;;;;;;;20.49;50.85;101713.44;5132332;27;21703;-58
2023/07/06 12:32:56;;;;;;;;;;;;;;;20.51;50.49;101714.81;5128928;27;19927;-58
2023/07/06 12:35:26;;;;;;;;;;;;;;;20.53;50.63;101712.63;5133517;27;19926;-58
2023/07/06 12:37:56;;;;;;;;;;;;;;;20.57;51.44;101713.75;5139108;27;19919;-58
2023/07/06 12:40:26;;;;;;;;;;;;;;;20.59;51.30;101706.09;5144135;27;19926;-57
2023/07/06 12:42:53;;;;;;;;;;;;;;;20.58;49.50;101712.66;5141359;27;19934;-58
2023/07/06 12:45:23;;;;;;;;;;;;;;;20.59;49.85;101717.03;5139785;27;19920;-57
2023/07/06 12:47:57;;;;;;;;;;;;;;;20.59;49.02;101703.38;5135355;27;19935;-58
2023/07/06 12:50:30;;;;;;;;;;;;;;;20.59;49.93;101702.56;5136381;27;19930;-58